Time;durP1;ratioP1;P1;durP2;ratioP2;P2;SDS_P1;SDS_P2;PMS_P1;PMS_P2;Temp;Humidity;BMP_temperature;BMP_pressure;BME280_temperature;BME280_humidity;BME280_pressure;Samples;Min_cycle;Max_cycle;Signal;HPM_P1;HPM_P2
2021/07/16 00:01:37;;;;;;;31.75;13.85;;;19.10;99.90;;;;;;5021404;28;20025;-69
2021/07/16 00:04:03;;;;;;;24.55;12.95;;;19.10;99.90;;;;;;5017680;28;20021;-69
2021/07/16 00:06:29;;;;;;;27.25;13.77;;;19.10;99.90;;;;;;5022440;28;20033;-69
2021/07/16 00:08:54;;;;;;;28.10;13.85;;;19.10;99.90;;;;;;5020276;28;20030;-70
2021/07/16 00:11:21;;;;;;;31.88;14.82;;;19.20;99.90;;;;;;5022083;28;20030;-69
2021/07/16 00:13:47;;;;;;;25.45;14.85;;;19.20;99.90;;;;;;5024354;28;20019;-69
2021/07/16 00:16:13;;;;;;;29.00;14.75;;;19.20;99.90;;;;;;5022852;28;20112;-69
2021/07/16 00:18:38;;;;;;;29.50;15.85;;;19.20;99.90;;;;;;5021501;28;20072;-71
2021/07/16 00:21:04;;;;;;;24.10;14.65;;;19.10;99.90;;;;;;5024090;28;20037;-70
2021/07/16 00:23:30;;;;;;;28.08;13.88;;;19.10;99.90;;;;;;5028905;28;20405;-70
2021/07/16 00:25:57;;;;;;;28.20;14.77;;;19.20;99.90;;;;;;5024889;28;20080;-70
2021/07/16 00:28:22;;;;;;;24.02;14.63;;;19.20;99.90;;;;;;5025577;28;20108;-70
2021/07/16 00:30:50;;;;;;;28.65;14.18;;;19.30;99.90;;;;;;5027058;28;20104;-70
2021/07/16 00:33:16;;;;;;;23.70;14.25;;;19.20;99.90;;;;;;5024251;28;20025;-70
2021/07/16 00:35:42;;;;;;;26.33;13.50;;;19.20;99.90;;;;;;5019440;28;20022;-70
2021/07/16 00:38:08;;;;;;;28.60;13.55;;;19.20;99.90;;;;;;5018163;28;20023;-70
2021/07/16 00:40:33;;;;;;;28.13;13.48;;;19.10;99.90;;;;;;5027130;28;20036;-70
2021/07/16 00:42:59;;;;;;;24.73;14.20;;;19.10;99.90;;;;;;5026928;28;20093;-71
2021/07/16 00:45:25;;;;;;;25.33;13.82;;;19.10;99.90;;;;;;5021595;28;20030;-70
2021/07/16 00:47:52;;;;;;;32.08;15.35;;;19.10;99.90;;;;;;5023038;28;21248;-73
2021/07/16 00:50:28;;;;;;;25.73;12.35;;;19.10;99.90;;;;;;5024034;28;20041;-70
2021/07/16 00:52:58;;;;;;;26.02;13.07;;;19.10;99.90;;;;;;5023596;28;20049;-70
2021/07/16 00:55:25;;;;;;;29.27;13.05;;;19.10;99.90;;;;;;5021820;28;20021;-70
2021/07/16 00:57:51;;;;;;;24.35;13.18;;;19.00;99.90;;;;;;5024692;28;20021;-70
2021/07/16 01:00:18;;;;;;;28.42;13.10;;;19.00;99.90;;;;;;5024392;28;20084;-70
2021/07/16 01:02:44;;;;;;;24.50;12.23;;;19.00;99.90;;;;;;5026441;28;20021;-71
2021/07/16 01:05:12;;;;;;;23.58;13.13;;;19.00;99.90;;;;;;5025522;28;20029;-70
2021/07/16 01:07:39;;;;;;;26.35;13.15;;;19.00;99.90;;;;;;5027681;28;20014;-69
2021/07/16 01:10:07;;;;;;;28.65;12.88;;;19.00;99.90;;;;;;5021791;28;20026;-74
2021/07/16 01:12:33;;;;;;;21.95;12.40;;;19.00;99.90;;;;;;5032563;28;20025;-72
2021/07/16 01:14:59;;;;;;;28.35;13.10;;;19.00;99.90;;;;;;5030937;28;20025;-71
2021/07/16 01:17:25;;;;;;;24.83;12.40;;;19.00;99.90;;;;;;5027274;28;20026;-75
2021/07/16 01:20:08;;;;;;;26.98;13.45;;;19.00;99.90;;;;;;5019069;28;20029;-75
2021/07/16 01:22:36;;;;;;;21.40;12.50;;;19.00;99.90;;;;;;5025417;28;20108;-73
2021/07/16 01:25:09;;;;;;;26.20;12.30;;;18.90;99.90;;;;;;5026864;28;20025;-74
2021/07/16 01:27:35;;;;;;;21.30;11.80;;;18.90;99.90;;;;;;5032688;28;20058;-73
2021/07/16 01:30:04;;;;;;;24.40;11.40;;;19.00;99.90;;;;;;5033837;28;20021;-71
2021/07/16 01:32:30;;;;;;;21.48;12.52;;;19.00;99.90;;;;;;5033651;28;20052;-76
2021/07/16 01:34:56;;;;;;;21.27;12.55;;;19.00;99.90;;;;;;5032944;28;20474;-72
2021/07/16 01:37:22;;;;;;;23.58;12.88;;;19.00;99.90;;;;;;5030839;28;20032;-76
2021/07/16 01:39:47;;;;;;;27.92;12.43;;;18.90;99.90;;;;;;5029553;28;20486;-75
2021/07/16 01:42:14;;;;;;;23.27;14.32;;;19.00;99.90;;;;;;5032737;28;20029;-76
2021/07/16 01:44:42;;;;;;;24.00;14.27;;;19.00;99.90;;;;;;5029368;28;20033;-74
2021/07/16 01:47:09;;;;;;;23.38;13.00;;;19.00;99.90;;;;;;5031806;28;20014;-75
2021/07/16 01:49:35;;;;;;;23.73;13.18;;;19.00;99.90;;;;;;5030775;28;20013;-75
2021/07/16 01:52:00;;;;;;;22.48;13.32;;;19.10;99.90;;;;;;5030783;28;20029;-76
2021/07/16 01:54:26;;;;;;;22.15;12.77;;;19.10;99.90;;;;;;5012602;28;20052;-71
2021/07/16 01:56:52;;;;;;;26.33;12.82;;;19.00;99.90;;;;;;5026959;28;20022;-76
2021/07/16 01:59:18;;;;;;;44.40;17.25;;;19.10;99.90;;;;;;5032553;28;20045;-72
2021/07/16 02:01:43;;;;;;;25.17;13.40;;;19.00;99.90;;;;;;5032881;28;20018;-71
2021/07/16 02:04:12;;;;;;;32.15;15.63;;;18.90;99.90;;;;;;5025578;28;20025;-72
2021/07/16 02:06:39;;;;;;;28.38;16.40;;;19.00;99.90;;;;;;5044405;28;20034;-72
2021/07/16 02:09:06;;;;;;;25.67;14.75;;;19.00;99.90;;;;;;5033638;28;20063;-73
2021/07/16 02:11:32;;;;;;;23.65;14.80;;;19.00;99.90;;;;;;5026545;28;20082;-72
2021/07/16 02:13:58;;;;;;;31.90;15.65;;;19.10;99.90;;;;;;5026983;28;20017;-70
2021/07/16 02:16:24;;;;;;;23.52;13.43;;;19.00;99.90;;;;;;5029528;28;20152;-70
2021/07/16 02:18:54;;;;;;;32.45;14.60;;;19.00;99.90;;;;;;5032991;28;20057;-72
2021/07/16 02:21:21;;;;;;;28.15;15.32;;;19.10;99.90;;;;;;5028341;28;20025;-71
2021/07/16 02:23:47;;;;;;;61.33;20.05;;;19.00;99.90;;;;;;5028479;28;20619;-71
2021/07/16 02:26:13;;;;;;;26.40;14.55;;;18.90;99.90;;;;;;5024554;28;20128;-72
2021/07/16 02:28:39;;;;;;;20.23;15.18;;;18.90;99.90;;;;;;5031055;28;20414;-72
2021/07/16 02:31:10;;;;;;;23.40;14.15;;;19.00;99.90;;;;;;5033109;28;20029;-72
2021/07/16 02:33:36;;;;;;;31.20;14.20;;;19.00;99.90;;;;;;5031952;28;20071;-72
2021/07/16 02:36:03;;;;;;;30.38;15.52;;;19.00;99.90;;;;;;5030696;28;20100;-70
2021/07/16 02:38:29;;;;;;;22.33;13.98;;;19.00;99.90;;;;;;5032082;28;20024;-70
2021/07/16 02:40:55;;;;;;;22.65;14.48;;;19.00;99.90;;;;;;5027655;28;20029;-70
2021/07/16 02:43:22;;;;;;;21.27;14.77;;;19.00;99.90;;;;;;5030378;28;20026;-72
2021/07/16 02:45:48;;;;;;;30.40;14.23;;;19.00;99.90;;;;;;5025841;28;20064;-71
2021/07/16 02:48:14;;;;;;;31.05;14.63;;;19.00;99.90;;;;;;5031379;28;20355;-71
2021/07/16 02:50:41;;;;;;;21.02;12.45;;;18.80;99.90;;;;;;5032510;28;20040;-72
2021/07/16 02:53:12;;;;;;;25.67;14.95;;;18.90;99.90;;;;;;5026697;28;20032;-71
2021/07/16 02:55:38;;;;;;;26.08;13.70;;;18.90;99.90;;;;;;5029815;28;20080;-71
2021/07/16 02:58:04;;;;;;;35.20;15.95;;;18.90;99.90;;;;;;5026011;28;20108;-71
2021/07/16 03:00:32;;;;;;;29.30;15.95;;;18.90;99.90;;;;;;5029886;28;20099;-72
2021/07/16 03:02:58;;;;;;;30.05;15.90;;;18.70;99.90;;;;;;5031218;28;20109;-71
2021/07/16 03:05:29;;;;;;;24.38;13.52;;;18.70;99.90;;;;;;5026331;28;20022;-72
2021/07/16 03:07:59;;;;;;;23.30;15.15;;;18.80;99.90;;;;;;5025711;28;20017;-72
2021/07/16 03:10:26;;;;;;;28.83;15.63;;;18.90;99.90;;;;;;5024721;28;20036;-72
2021/07/16 03:12:54;;;;;;;24.33;14.82;;;18.90;99.90;;;;;;5029591;28;20033;-71
2021/07/16 03:15:22;;;;;;;29.30;16.30;;;18.90;99.90;;;;;;5030260;28;20033;-72
2021/07/16 03:17:48;;;;;;;29.80;16.67;;;18.90;99.90;;;;;;5029805;28;20493;-71
2021/07/16 03:20:16;;;;;;;32.55;17.02;;;18.90;99.90;;;;;;5027404;28;20022;-72
2021/07/16 03:22:42;;;;;;;29.40;16.73;;;18.90;99.90;;;;;;5031183;28;20041;-71
2021/07/16 03:25:10;;;;;;;25.85;16.98;;;19.00;99.90;;;;;;5024040;28;20477;-71
2021/07/16 03:27:37;;;;;;;27.98;15.90;;;18.90;99.90;;;;;;5026585;28;20040;-71
2021/07/16 03:30:04;;;;;;;32.47;17.05;;;18.90;99.90;;;;;;5022645;28;20030;-71
2021/07/16 03:32:30;;;;;;;35.00;18.77;;;18.90;99.90;;;;;;5026973;28;20018;-71
2021/07/16 03:34:55;;;;;;;26.45;16.58;;;18.90;99.90;;;;;;5030197;28;20392;-72
2021/07/16 03:37:21;;;;;;;36.95;16.90;;;18.80;99.90;;;;;;5026149;28;20029;-71
2021/07/16 03:39:50;;;;;;;28.60;16.42;;;18.80;99.90;;;;;;5031070;28;20469;-71
2021/07/16 03:42:17;;;;;;;32.33;16.85;;;18.80;99.90;;;;;;5030182;28;20020;-70
2021/07/16 03:44:42;;;;;;;36.38;16.52;;;18.70;99.90;;;;;;5024891;28;20112;-71
2021/07/16 03:47:15;;;;;;;37.45;17.15;;;18.70;99.90;;;;;;5025849;28;20100;-71
2021/07/16 03:49:43;;;;;;;33.47;16.98;;;18.70;99.90;;;;;;5028980;28;20389;-71
2021/07/16 03:52:08;;;;;;;32.92;16.50;;;18.70;99.90;;;;;;5029407;28;20018;-70
2021/07/16 03:54:35;;;;;;;30.02;16.35;;;18.70;99.90;;;;;;5029710;28;20029;-71
2021/07/16 03:57:02;;;;;;;34.08;15.15;;;18.70;99.90;;;;;;5030735;28;20378;-70
2021/07/16 03:59:28;;;;;;;30.77;16.52;;;18.70;99.90;;;;;;5026402;28;20535;-71
2021/07/16 04:01:54;;;;;;;39.35;17.92;;;18.70;99.90;;;;;;5030649;28;20104;-72
2021/07/16 04:04:19;;;;;;;30.98;16.17;;;18.70;99.90;;;;;;5028216;28;20469;-70
2021/07/16 04:06:52;;;;;;;32.80;16.98;;;18.70;99.90;;;;;;5027991;28;20034;-70
2021/07/16 04:09:26;;;;;;;27.17;15.73;;;18.60;99.90;;;;;;5031036;28;20083;-71
2021/07/16 04:12:12;;;;;;;33.35;16.85;;;18.60;99.90;;;;;;5030994;28;20462;-70
2021/07/16 04:14:49;;;;;;;34.72;15.68;;;18.50;99.90;;;;;;5025000;28;20632;-70
2021/07/16 04:17:18;;;;;;;28.55;15.32;;;18.50;99.90;;;;;;5024204;28;20030;-70
2021/07/16 04:19:45;;;;;;;41.30;15.85;;;18.50;99.90;;;;;;5030603;28;20443;-70
2021/07/16 04:22:12;;;;;;;32.13;15.93;;;18.40;99.90;;;;;;5030653;28;20034;-73
2021/07/16 04:24:39;;;;;;;31.05;16.35;;;18.40;99.90;;;;;;5025597;28;20132;-70
2021/07/16 04:27:05;;;;;;;28.08;15.35;;;18.40;99.90;;;;;;5023429;28;20061;-71
2021/07/16 04:29:32;;;;;;;36.08;16.23;;;18.40;99.90;;;;;;5023164;28;20023;-70
2021/07/16 04:31:59;;;;;;;40.45;16.13;;;18.40;99.90;;;;;;5022362;28;20021;-70
2021/07/16 04:34:27;;;;;;;35.40;16.08;;;18.40;99.90;;;;;;5028289;28;20014;-70
2021/07/16 04:36:54;;;;;;;35.40;15.30;;;18.40;99.90;;;;;;5031058;28;20547;-71
2021/07/16 04:39:20;;;;;;;29.35;14.88;;;18.50;99.90;;;;;;5025101;28;20156;-71
2021/07/16 04:41:46;;;;;;;30.02;14.98;;;18.50;99.90;;;;;;5031000;28;20100;-70
2021/07/16 04:44:11;;;;;;;35.78;16.10;;;18.50;99.90;;;;;;5026917;28;20476;-71
2021/07/16 04:46:37;;;;;;;32.38;15.60;;;18.50;99.90;;;;;;5025604;28;20033;-70
2021/07/16 04:49:03;;;;;;;29.83;14.48;;;18.50;99.90;;;;;;5026709;28;20040;-71
2021/07/16 04:51:32;;;;;;;33.78;14.80;;;18.50;99.90;;;;;;5030161;28;20529;-71
2021/07/16 04:53:58;;;;;;;30.77;15.88;;;18.50;99.90;;;;;;5030073;28;20034;-71
2021/07/16 04:56:25;;;;;;;35.95;15.38;;;18.50;99.90;;;;;;5024676;28;20389;-70
2021/07/16 04:58:52;;;;;;;30.08;15.15;;;18.50;99.90;;;;;;5027105;28;20032;-70
2021/07/16 05:01:18;;;;;;;42.55;15.55;;;18.50;99.90;;;;;;5033579;28;20048;-70
2021/07/16 05:03:44;;;;;;;27.88;14.90;;;18.50;99.90;;;;;;5033530;28;20021;-70
2021/07/16 05:06:11;;;;;;;29.77;16.50;;;18.50;99.90;;;;;;5030120;28;20084;-70
2021/07/16 05:08:38;;;;;;;30.15;14.57;;;18.50;99.90;;;;;;5030372;28;20022;-70
2021/07/16 05:11:04;;;;;;;29.08;14.25;;;18.40;99.90;;;;;;5032167;28;20087;-71
2021/07/16 05:13:32;;;;;;;34.00;14.88;;;18.40;99.90;;;;;;5029689;28;20068;-70
2021/07/16 05:15:59;;;;;;;39.22;15.75;;;18.30;99.90;;;;;;5033917;28;20028;-71
2021/07/16 05:18:25;;;;;;;32.40;14.10;;;18.30;99.90;;;;;;5032266;28;20021;-70
2021/07/16 05:20:51;;;;;;;35.05;14.73;;;18.30;99.90;;;;;;5033828;28;20124;-70
2021/07/16 05:23:16;;;;;;;30.55;14.70;;;18.30;99.90;;;;;;5033049;28;20029;-70
2021/07/16 05:25:42;;;;;;;30.45;14.07;;;18.30;99.90;;;;;;5029896;28;20555;-71
2021/07/16 05:28:08;;;;;;;26.73;14.15;;;18.20;99.90;;;;;;5027347;28;20481;-70
2021/07/16 05:30:33;;;;;;;39.75;15.68;;;18.20;99.90;;;;;;5033696;28;20154;-70
2021/07/16 05:32:59;;;;;;;38.08;15.80;;;18.20;99.90;;;;;;5033466;28;20063;-71
2021/07/16 05:35:25;;;;;;;29.70;13.25;;;18.30;99.90;;;;;;5029195;28;20029;-69
2021/07/16 05:37:51;;;;;;;27.33;14.32;;;18.20;99.90;;;;;;5026672;28;20114;-70
2021/07/16 05:40:17;;;;;;;30.30;15.05;;;18.30;99.90;;;;;;5028523;28;20020;-70
2021/07/16 05:42:43;;;;;;;29.17;13.73;;;18.30;99.90;;;;;;5033912;28;20389;-70
2021/07/16 05:45:09;;;;;;;26.65;13.57;;;18.40;99.90;;;;;;5028177;28;20026;-69
2021/07/16 05:47:34;;;;;;;35.75;14.75;;;18.30;99.90;;;;;;5030179;28;20049;-69
2021/07/16 05:50:00;;;;;;;28.13;14.20;;;18.30;99.90;;;;;;5032489;28;20021;-71
2021/07/16 05:52:27;;;;;;;32.58;14.60;;;18.30;99.90;;;;;;5025744;28;20033;-70
2021/07/16 05:54:54;;;;;;;27.60;13.88;;;18.30;99.90;;;;;;5027194;28;20045;-69
2021/07/16 05:57:20;;;;;;;43.08;15.13;;;18.30;99.90;;;;;;5032016;28;20493;-70
2021/07/16 05:59:46;;;;;;;30.65;13.38;;;18.30;99.90;;;;;;5027897;28;20053;-70
2021/07/16 06:02:12;;;;;;;37.95;13.82;;;18.30;99.90;;;;;;5032971;28;20087;-70
2021/07/16 06:04:37;;;;;;;32.95;13.95;;;18.20;99.90;;;;;;5027056;28;20033;-72
2021/07/16 06:07:04;;;;;;;34.67;13.80;;;18.30;99.90;;;;;;5028513;28;20481;-70
2021/07/16 06:09:30;;;;;;;31.30;12.80;;;18.30;99.90;;;;;;5027545;28;20033;-70
2021/07/16 06:11:56;;;;;;;33.30;13.82;;;18.30;99.90;;;;;;5032693;28;20053;-71
2021/07/16 06:14:22;;;;;;;34.25;14.30;;;18.30;99.90;;;;;;5030556;28;20020;-69
2021/07/16 06:16:51;;;;;;;33.35;13.73;;;18.20;99.90;;;;;;5033071;28;20029;-69
2021/07/16 06:19:18;;;;;;;32.65;13.30;;;18.20;99.90;;;;;;5032695;28;20037;-69
2021/07/16 06:21:45;;;;;;;35.58;14.80;;;18.30;99.90;;;;;;5031804;28;20033;-71
2021/07/16 06:24:11;;;;;;;31.10;15.00;;;18.20;99.90;;;;;;5028119;28;20033;-70
2021/07/16 06:26:37;;;;;;;31.92;14.68;;;18.10;99.90;;;;;;5030283;28;20508;-70
2021/07/16 06:29:04;;;;;;;35.03;15.40;;;18.10;99.90;;;;;;5026955;28;20045;-69
2021/07/16 06:31:29;;;;;;;41.15;16.95;;;18.10;99.90;;;;;;5025723;28;20032;-71
2021/07/16 06:33:55;;;;;;;33.65;14.35;;;18.10;99.90;;;;;;5023847;28;20449;-69
2021/07/16 06:36:21;;;;;;;43.40;16.27;;;18.10;99.90;;;;;;5025675;28;20021;-71
2021/07/16 06:38:47;;;;;;;34.25;14.73;;;18.20;99.90;;;;;;5026484;28;20045;-69
2021/07/16 06:41:13;;;;;;;36.75;14.30;;;18.20;99.90;;;;;;5032004;28;20044;-74
2021/07/16 06:43:38;;;;;;;31.90;14.38;;;18.30;99.90;;;;;;5026664;28;20100;-70
2021/07/16 06:46:05;;;;;;;42.20;16.90;;;18.30;99.90;;;;;;5030200;28;20033;-74
2021/07/16 06:48:30;;;;;;;31.88;15.38;;;18.40;99.90;;;;;;5032522;28;20071;-71
2021/07/16 06:50:56;;;;;;;38.92;16.35;;;18.40;99.90;;;;;;5030476;28;20034;-69
2021/07/16 06:53:22;;;;;;;29.83;14.95;;;18.50;99.90;;;;;;5031964;28;20069;-70
2021/07/16 06:55:48;;;;;;;33.25;15.88;;;18.40;99.90;;;;;;5032242;28;20060;-69
2021/07/16 06:58:14;;;;;;;33.85;15.00;;;18.50;99.90;;;;;;5020084;28;20025;-69
2021/07/16 07:00:40;;;;;;;38.28;15.20;;;18.50;99.90;;;;;;5030104;28;20018;-71
2021/07/16 07:03:05;;;;;;;37.80;15.52;;;18.50;99.90;;;;;;5023995;28;20040;-69
2021/07/16 07:05:31;;;;;;;31.73;14.35;;;18.50;99.90;;;;;;5025858;28;20391;-70
2021/07/16 07:07:57;;;;;;;35.03;16.02;;;18.40;99.90;;;;;;5028103;28;20026;-71
2021/07/16 07:10:23;;;;;;;29.92;13.70;;;18.40;99.90;;;;;;5030709;28;20104;-70
2021/07/16 07:12:48;;;;;;;32.15;14.27;;;18.50;99.90;;;;;;5026229;28;20430;-74
2021/07/16 07:15:14;;;;;;;34.15;13.43;;;18.50;99.90;;;;;;5007253;28;20500;-71
2021/07/16 07:17:41;;;;;;;28.90;13.73;;;18.50;99.90;;;;;;5022908;28;20389;-77
2021/07/16 07:20:08;;;;;;;32.38;13.95;;;18.40;99.90;;;;;;5026176;28;20040;-76
2021/07/16 07:22:34;;;;;;;28.90;12.15;;;18.50;99.90;;;;;;5028849;28;20025;-71
2021/07/16 07:25:00;;;;;;;34.78;12.30;;;18.50;99.90;;;;;;5020392;28;20030;-69
2021/07/16 07:27:25;;;;;;;35.28;14.05;;;18.40;99.90;;;;;;5027360;28;20030;-71
2021/07/16 07:29:51;;;;;;;32.40;12.30;;;18.40;99.90;;;;;;5027763;28;20013;-70
2021/07/16 07:32:17;;;;;;;25.40;11.43;;;18.50;99.90;;;;;;5025148;28;20021;-69
2021/07/16 07:34:42;;;;;;;30.42;13.15;;;18.50;99.90;;;;;;5021222;28;20296;-70
2021/07/16 07:37:08;;;;;;;30.67;12.65;;;18.50;99.90;;;;;;5027598;28;20017;-70
2021/07/16 07:39:34;;;;;;;26.00;11.75;;;18.60;99.90;;;;;;5026233;28;20021;-76
2021/07/16 07:42:00;;;;;;;31.15;11.57;;;18.50;99.90;;;;;;5001414;28;20041;-70
2021/07/16 07:44:26;;;;;;;24.63;11.77;;;18.50;99.90;;;;;;5027578;28;20129;-76
2021/07/16 07:46:52;;;;;;;28.17;12.35;;;18.50;99.90;;;;;;5027019;28;20041;-75
2021/07/16 07:49:18;;;;;;;30.80;11.23;;;18.50;99.90;;;;;;5021041;28;20018;-77
2021/07/16 07:51:44;;;;;;;33.08;12.18;;;18.60;99.90;;;;;;5029375;28;20052;-72
2021/07/16 07:54:10;;;;;;;27.23;11.73;;;18.60;99.90;;;;;;5029060;28;20579;-70
2021/07/16 07:56:37;;;;;;;26.02;10.57;;;18.60;99.90;;;;;;5023888;28;20041;-70
2021/07/16 07:59:04;;;;;;;28.90;11.27;;;18.70;99.90;;;;;;5023018;28;20130;-72
2021/07/16 08:01:34;;;;;;;25.52;11.48;;;18.70;99.90;;;;;;5022730;28;20079;-76
2021/07/16 08:04:00;;;;;;;30.92;10.43;;;18.80;99.90;;;;;;5024642;28;20018;-74
2021/07/16 08:06:27;;;;;;;20.10;10.52;;;18.80;99.90;;;;;;5028569;28;20103;-78
2021/07/16 08:08:53;;;;;;;28.65;10.20;;;18.90;99.90;;;;;;5028690;28;20076;-69
2021/07/16 08:11:19;;;;;;;28.48;10.85;;;19.00;99.90;;;;;;5030395;28;20025;-78
2021/07/16 08:13:44;;;;;;;22.73;9.82;;;19.00;99.90;;;;;;5022866;28;20133;-78
2021/07/16 08:16:10;;;;;;;24.70;9.77;;;19.00;99.90;;;;;;5026614;28;20729;-71
2021/07/16 08:18:36;;;;;;;29.17;9.55;;;19.00;99.90;;;;;;5029420;28;20056;-73
2021/07/16 08:21:02;;;;;;;31.85;9.90;;;19.00;99.90;;;;;;5023084;28;20045;-74
2021/07/16 08:23:28;;;;;;;25.70;10.30;;;19.00;99.90;;;;;;5028382;28;20477;-73
2021/07/16 08:25:53;;;;;;;28.45;9.23;;;18.90;99.90;;;;;;5027248;28;20079;-72
2021/07/16 08:28:19;;;;;;;20.25;8.63;;;18.90;99.90;;;;;;5027602;28;20026;-73
2021/07/16 08:30:45;;;;;;;33.92;10.70;;;18.90;99.90;;;;;;5018515;28;20021;-74
2021/07/16 08:33:11;;;;;;;31.73;9.80;;;18.90;99.90;;;;;;5026966;28;20025;-70
2021/07/16 08:35:36;;;;;;;21.30;9.50;;;18.80;99.90;;;;;;5028002;28;20091;-75
2021/07/16 08:38:05;;;;;;;31.30;9.40;;;18.90;99.90;;;;;;5027415;28;20026;-69
2021/07/16 08:40:32;;;;;;;28.13;9.75;;;18.90;99.90;;;;;;5032981;28;20018;-69
2021/07/16 08:42:58;;;;;;;26.88;8.43;;;18.80;99.90;;;;;;5024737;28;20037;-72
2021/07/16 08:45:26;;;;;;;23.33;8.70;;;18.80;99.90;;;;;;5030800;28;20512;-72
2021/07/16 08:47:52;;;;;;;24.65;8.50;;;18.80;99.90;;;;;;5032858;28;20580;-69
2021/07/16 08:50:18;;;;;;;21.30;8.88;;;18.70;99.90;;;;;;5032733;28;20120;-71
2021/07/16 08:52:46;;;;;;;29.45;8.80;;;18.70;99.90;;;;;;5028573;28;20026;-78
2021/07/16 08:55:13;;;;;;;21.27;7.93;;;18.80;99.90;;;;;;5025677;28;20063;-77
2021/07/16 08:57:39;;;;;;;24.05;8.77;;;18.90;99.90;;;;;;5033198;28;20036;-77
2021/07/16 09:00:07;;;;;;;23.73;8.77;;;18.90;99.90;;;;;;5031053;28;20018;-72
2021/07/16 09:02:35;;;;;;;23.35;8.07;;;18.80;99.90;;;;;;5025748;28;20026;-70
2021/07/16 09:05:07;;;;;;;22.17;9.23;;;18.90;99.90;;;;;;5032186;28;20025;-70
2021/07/16 09:07:42;;;;;;;25.17;8.95;;;18.90;99.90;;;;;;5029502;28;20490;-70
2021/07/16 09:10:10;;;;;;;26.48;8.48;;;18.90;99.90;;;;;;5031468;28;20025;-69
2021/07/16 09:12:36;;;;;;;31.38;8.55;;;18.90;99.90;;;;;;5028484;28;20058;-69
2021/07/16 09:15:10;;;;;;;23.38;8.98;;;19.00;99.90;;;;;;5030596;28;20458;-69
2021/07/16 09:17:41;;;;;;;25.92;8.65;;;19.00;99.90;;;;;;5027689;28;20022;-70
2021/07/16 09:20:08;;;;;;;30.17;8.70;;;19.00;99.90;;;;;;5031180;28;20025;-69
2021/07/16 09:22:35;;;;;;;32.65;9.63;;;19.10;99.90;;;;;;5028842;28;20037;-69
2021/07/16 09:25:04;;;;;;;31.83;9.77;;;19.00;99.90;;;;;;5029742;28;20117;-71
2021/07/16 09:27:38;;;;;;;30.35;8.75;;;19.00;99.90;;;;;;5028019;28;20021;-69
2021/07/16 09:30:24;;;;;;;26.75;8.93;;;19.10;99.90;;;;;;5029316;28;20096;-71
2021/07/16 09:33:17;;;;;;;29.58;9.80;;;19.00;99.90;;;;;;5025121;28;20386;-69
2021/07/16 09:35:43;;;;;;;23.75;8.30;;;19.00;99.90;;;;;;5030277;28;20145;-68
2021/07/16 09:38:17;;;;;;;30.17;9.23;;;19.10;99.90;;;;;;5026638;28;20109;-71
2021/07/16 09:40:47;;;;;;;23.55;8.70;;;19.20;99.90;;;;;;5022767;28;20473;-71
2021/07/16 09:43:16;;;;;;;29.35;8.70;;;19.20;99.90;;;;;;5027740;28;20052;-70
2021/07/16 09:45:45;;;;;;;21.38;9.32;;;19.20;99.90;;;;;;5023455;28;20029;-69
2021/07/16 09:48:34;;;;;;;32.97;8.25;;;19.20;99.90;;;;;;5023563;28;20041;-70
2021/07/16 09:51:14;;;;;;;25.70;7.75;;;19.20;99.90;;;;;;5022450;28;20041;-70
2021/07/16 09:54:00;;;;;;;26.92;8.95;;;19.20;99.90;;;;;;5028342;28;20067;-70
2021/07/16 09:56:30;;;;;;;24.58;8.00;;;19.20;99.90;;;;;;5020808;28;20029;-70
2021/07/16 09:59:14;;;;;;;27.20;8.75;;;19.30;99.90;;;;;;5024425;28;20017;-70
2021/07/16 10:01:42;;;;;;;24.67;8.38;;;19.20;99.90;;;;;;5017418;28;20036;-70
2021/07/16 10:04:16;;;;;;;32.65;8.90;;;19.30;99.90;;;;;;5026597;28;20017;-69
2021/07/16 10:06:43;;;;;;;27.42;8.73;;;19.40;99.90;;;;;;5029466;28;20033;-69
2021/07/16 10:09:09;;;;;;;29.50;9.75;;;19.40;99.90;;;;;;5027864;28;20017;-69
2021/07/16 10:11:36;;;;;;;36.35;9.70;;;19.30;99.90;;;;;;5030226;28;20033;-69
2021/07/16 10:14:03;;;;;;;28.92;8.95;;;19.30;99.90;;;;;;5026922;28;20032;-70
2021/07/16 10:16:29;;;;;;;25.15;7.78;;;19.20;99.90;;;;;;5022688;28;20026;-70
2021/07/16 10:18:55;;;;;;;30.67;10.02;;;19.20;99.90;;;;;;5031085;28;20520;-70
2021/07/16 10:21:22;;;;;;;24.27;9.93;;;19.20;99.90;;;;;;5025828;28;20505;-71
2021/07/16 10:23:54;;;;;;;33.03;9.70;;;19.20;99.90;;;;;;5028980;28;20438;-69
2021/07/16 10:26:21;;;;;;;30.23;8.70;;;19.30;99.90;;;;;;5031127;28;20029;-71
2021/07/16 10:28:48;;;;;;;26.45;8.80;;;19.30;99.90;;;;;;5028665;28;20014;-70
2021/07/16 10:31:29;;;;;;;31.20;8.63;;;19.20;99.90;;;;;;5027406;28;20034;-72
2021/07/16 10:33:59;;;;;;;34.30;9.00;;;19.30;99.90;;;;;;5028683;28;20029;-70
2021/07/16 10:36:37;;;;;;;36.10;8.70;;;19.10;99.90;;;;;;5026996;28;20092;-70
2021/07/16 10:39:08;;;;;;;32.75;9.32;;;19.20;99.90;;;;;;5030211;28;20021;-70
2021/07/16 10:41:37;;;;;;;31.13;8.10;;;19.20;99.90;;;;;;5028532;28;20520;-70
2021/07/16 10:44:02;;;;;;;35.75;9.77;;;19.20;99.90;;;;;;5027988;28;20018;-70
2021/07/16 10:46:30;;;;;;;33.65;8.75;;;19.10;99.90;;;;;;5042295;28;20080;-71
2021/07/16 10:48:56;;;;;;;34.88;9.73;;;19.10;99.90;;;;;;5026908;28;20020;-70
2021/07/16 10:51:25;;;;;;;28.17;9.10;;;19.30;99.90;;;;;;5025819;28;20026;-71
2021/07/16 10:53:51;;;;;;;36.67;9.70;;;19.30;99.90;;;;;;5026147;28;20041;-70
2021/07/16 10:56:19;;;;;;;30.02;9.07;;;19.40;99.90;;;;;;5019690;28;20390;-70
2021/07/16 10:58:49;;;;;;;27.55;8.35;;;19.40;99.90;;;;;;5023809;28;20351;-70
2021/07/16 11:01:39;;;;;;;27.63;8.70;;;19.40;99.90;;;;;;5019221;28;20052;-70
2021/07/16 11:04:07;;;;;;;24.73;8.77;;;19.40;99.90;;;;;;5019816;28;20018;-70
2021/07/16 11:06:51;;;;;;;38.80;9.40;;;19.40;99.90;;;;;;5025471;28;20029;-70
2021/07/16 11:09:36;;;;;;;31.10;10.57;;;19.50;99.90;;;;;;5022362;28;20026;-70
2021/07/16 11:12:24;;;;;;;33.08;9.63;;;19.50;99.90;;;;;;5023188;28;20033;-71
2021/07/16 11:14:51;;;;;;;33.03;9.25;;;19.50;99.90;;;;;;5024430;28;20488;-70
2021/07/16 11:17:36;;;;;;;28.95;9.90;;;19.50;99.90;;;;;;5029119;28;20021;-70
2021/07/16 11:20:14;;;;;;;27.58;9.18;;;19.50;99.90;;;;;;5026361;28;20534;-69
2021/07/16 11:23:00;;;;;;;31.90;8.10;;;19.50;99.90;;;;;;5027221;28;20115;-69
2021/07/16 11:25:28;;;;;;;27.17;9.43;;;19.60;99.90;;;;;;5028484;28;20029;-69
2021/07/16 11:27:54;;;;;;;19.92;8.75;;;19.70;99.90;;;;;;5025182;28;20566;-68
2021/07/16 11:30:20;;;;;;;31.65;9.32;;;19.70;99.90;;;;;;5028788;28;20017;-69
2021/07/16 11:32:45;;;;;;;34.30;9.20;;;19.70;99.90;;;;;;5028356;28;20018;-70
2021/07/16 11:35:13;;;;;;;31.55;10.02;;;19.80;99.90;;;;;;5029235;28;20542;-71
2021/07/16 11:37:49;;;;;;;27.80;8.70;;;19.80;99.90;;;;;;5029995;28;20417;-70
2021/07/16 11:40:26;;;;;;;34.38;9.35;;;19.80;99.90;;;;;;5024348;28;20076;-70
2021/07/16 11:42:57;;;;;;;30.30;8.10;;;19.90;99.90;;;;;;5024494;28;20057;-70
2021/07/16 11:45:29;;;;;;;29.63;8.98;;;19.90;99.90;;;;;;5026977;28;20040;-71
2021/07/16 11:47:56;;;;;;;33.33;8.82;;;19.90;99.90;;;;;;5027444;28;20017;-70
2021/07/16 11:50:22;;;;;;;26.35;9.48;;;20.00;99.90;;;;;;5024826;28;20033;-70
2021/07/16 11:52:50;;;;;;;29.17;9.30;;;19.90;99.90;;;;;;5027602;28;20018;-70
2021/07/16 11:55:18;;;;;;;25.48;9.35;;;19.90;99.90;;;;;;5029222;28;20457;-70
2021/07/16 11:57:46;;;;;;;34.10;10.23;;;20.00;99.90;;;;;;5027829;28;20033;-71
2021/07/16 12:00:13;;;;;;;30.60;8.98;;;20.00;99.90;;;;;;5029163;28;20358;-70
2021/07/16 12:02:39;;;;;;;30.30;8.35;;;20.10;99.90;;;;;;5022375;28;20014;-70
2021/07/16 12:05:05;;;;;;;29.08;9.00;;;20.20;99.90;;;;;;5025065;28;20500;-70
2021/07/16 12:07:36;;;;;;;31.25;9.20;;;20.20;99.90;;;;;;5029216;28;20028;-70
2021/07/16 12:10:12;;;;;;;26.40;7.97;;;20.20;99.90;;;;;;5031746;28;20469;-70
2021/07/16 12:12:38;;;;;;;28.27;9.60;;;20.20;99.90;;;;;;5031168;28;20061;-70
2021/07/16 12:15:07;;;;;;;24.45;8.77;;;20.10;99.90;;;;;;5032944;28;20061;-70
2021/07/16 12:17:40;;;;;;;27.30;9.93;;;20.10;99.90;;;;;;5033985;28;20025;-71
2021/07/16 12:20:07;;;;;;;;;;;20.10;99.90;;;;;;5034148;28;20079;-70
2021/07/16 12:22:33;;;;;;;31.42;7.65;;;20.10;99.90;;;;;;5027391;28;20284;-71
2021/07/16 12:25:00;;;;;;;30.20;8.43;;;20.20;99.90;;;;;;5028534;28;20032;-70
2021/07/16 12:27:26;;;;;;;29.92;8.75;;;20.30;99.90;;;;;;5033205;28;20060;-70
2021/07/16 12:30:00;;;;;;;29.52;8.38;;;20.20;99.90;;;;;;5033532;28;20045;-70
2021/07/16 12:32:33;;;;;;;36.47;9.32;;;20.20;99.90;;;;;;5032025;28;20033;-70
2021/07/16 12:34:59;;;;;;;28.55;9.85;;;20.10;99.90;;;;;;5030657;28;20101;-71